createdAt,value
2022-08-26T00:00:36.888Z,89.67
2022-08-26T00:01:36.886Z,89.47
2022-08-26T00:02:36.957Z,89.26
2022-08-26T00:03:36.928Z,89.57
2022-08-26T00:04:36.839Z,89.97
2022-08-26T00:05:36.849Z,89.77
2022-08-26T00:06:36.830Z,89.87
2022-08-26T00:07:36.821Z,89.87
2022-08-26T00:08:36.821Z,89.67
2022-08-26T00:09:37.278Z,89.67
2022-08-26T00:10:36.781Z,89.47
2022-08-26T00:11:36.811Z,89.57
2022-08-26T00:12:37.532Z,89.57
2022-08-26T00:13:36.762Z,89.23
2022-08-26T00:14:36.744Z,89.23
2022-08-26T00:15:36.743Z,89.23
2022-08-26T00:16:36.773Z,89.43
2022-08-26T00:17:36.721Z,90.53
2022-08-26T00:18:38.866Z,89.12
2022-08-26T00:19:36.694Z,89.12
2022-08-26T00:20:36.675Z,88.92
2022-08-26T00:21:37.593Z,89.23
2022-08-26T00:22:36.676Z,89.12
2022-08-26T00:23:36.656Z,89.23
2022-08-26T00:24:36.638Z,90.33
2022-08-26T00:25:36.639Z,89.99
2022-08-26T00:26:37.618Z,90.49
2022-08-26T00:27:36.631Z,90.79
2022-08-26T00:28:36.588Z,90.99
2022-08-26T00:29:37.625Z,90.39
2022-08-26T00:30:36.570Z,89.89
2022-08-26T00:31:36.655Z,89.48
2022-08-26T00:32:36.550Z,89.08
2022-08-26T00:33:36.550Z,88.54
2022-08-26T00:34:36.530Z,88.34
2022-08-26T00:35:36.628Z,87.63
2022-08-26T00:36:36.512Z,88.34
2022-08-26T00:37:36.509Z,89.44
2022-08-26T00:38:37.881Z,89.34
2022-08-26T00:39:36.493Z,89.34
2022-08-26T00:40:37.290Z,89.64
2022-08-26T00:41:36.460Z,89.24
2022-08-26T00:42:36.454Z,88.64
2022-08-26T00:43:46.343Z,88.23
2022-08-26T00:44:37.433Z,88.13
2022-08-26T00:45:36.488Z,88.03
2022-08-26T00:46:36.405Z,87.93
2022-08-26T00:47:36.409Z,87.53
2022-08-26T00:48:36.387Z,88.43
2022-08-26T00:49:36.384Z,88.84
2022-08-26T00:50:36.373Z,88.23
2022-08-26T00:51:36.355Z,88.74
2022-08-26T00:52:37.157Z,88.23
2022-08-26T00:53:37.147Z,88.03
2022-08-26T00:54:36.337Z,87.33
2022-08-26T00:55:37.994Z,87.13
2022-08-26T00:56:36.302Z,88.03
2022-08-26T00:57:36.668Z,88.03
2022-08-26T00:58:36.281Z,87.73
2022-08-26T00:59:36.276Z,87.73
2022-08-26T01:00:36.266Z,87.93
2022-08-26T01:01:36.348Z,87.77
2022-08-26T01:02:36.269Z,87.87
2022-08-26T01:03:36.231Z,87.77
2022-08-26T01:04:36.221Z,87.37
2022-08-26T01:05:36.227Z,87.77
2022-08-26T01:06:36.199Z,87.67
2022-08-26T01:07:36.199Z,87.67
2022-08-26T01:08:36.174Z,87.47
2022-08-26T01:09:36.183Z,88.48
2022-08-26T01:10:36.153Z,88.12
2022-08-26T01:11:36.174Z,88.32
2022-08-26T01:12:36.133Z,88.32
2022-08-26T01:13:36.157Z,88.32
2022-08-26T01:14:36.713Z,88.22
2022-08-26T01:15:36.904Z,87.71
2022-08-26T01:16:36.256Z,87.82
2022-08-26T01:17:36.093Z,87.51
2022-08-26T01:18:36.092Z,87.92
2022-08-26T01:19:36.065Z,87.71
2022-08-26T01:20:36.058Z,87.92
2022-08-26T01:21:36.049Z,88.12
2022-08-26T01:22:36.050Z,88.12
2022-08-26T01:23:36.048Z,88.12
2022-08-26T01:24:36.015Z,88.02
2022-08-26T01:25:36.048Z,88.02
2022-08-26T01:26:35.987Z,88.42
2022-08-26T01:27:35.979Z,88.52
2022-08-26T01:28:35.969Z,88.52
2022-08-26T01:29:35.960Z,89.23
2022-08-26T01:30:35.968Z,89.03
2022-08-26T01:31:35.967Z,89.32
2022-08-26T01:32:35.920Z,89.43
2022-08-26T01:33:42.456Z,89.43
2022-08-26T01:34:36.941Z,89.43
2022-08-26T01:35:36.712Z,89.43
2022-08-26T01:36:35.881Z,89.57
2022-08-26T01:37:35.873Z,89.26
2022-08-26T01:38:35.874Z,89.06
2022-08-26T01:39:35.864Z,89.23
2022-08-26T01:40:36.633Z,89.06
2022-08-26T01:41:35.834Z,88.96
2022-08-26T01:42:35.834Z,88.76
2022-08-26T01:43:35.815Z,89.12
2022-08-26T01:44:35.806Z,88.86
2022-08-26T01:45:35.837Z,88.96
2022-08-26T01:46:35.784Z,88.76
2022-08-26T01:47:35.785Z,88.76
2022-08-26T01:48:35.760Z,88.86
2022-08-26T01:49:35.770Z,88.76
2022-08-26T01:50:35.747Z,88.56
2022-08-26T01:51:35.737Z,88.56
2022-08-26T01:52:35.727Z,88.66
2022-08-26T01:53:35.712Z,88.66
2022-08-26T01:54:35.738Z,88.96
2022-08-26T01:55:35.697Z,88.96
2022-08-26T01:56:36.529Z,89.17
2022-08-26T01:57:35.669Z,88.96
2022-08-26T01:58:35.669Z,88.86
2022-08-26T01:59:35.650Z,88.90
2022-08-26T02:00:36.331Z,89.01
2022-08-26T02:01:35.631Z,88.90
2022-08-26T02:02:35.711Z,88.90
2022-08-26T02:03:35.658Z,89.21
2022-08-26T02:04:35.644Z,89.21
2022-08-26T02:05:35.586Z,89.11
2022-08-26T02:06:35.574Z,89.01
2022-08-26T02:07:35.585Z,89.11
2022-08-26T02:08:35.554Z,89.41
2022-08-26T02:09:41.096Z,89.71
2022-08-26T02:10:36.542Z,89.81
2022-08-26T02:11:36.902Z,89.61
2022-08-26T02:12:35.519Z,89.61
2022-08-26T02:13:35.514Z,89.71
2022-08-26T02:14:35.486Z,89.81
2022-08-26T02:15:36.496Z,89.91
2022-08-26T02:16:35.562Z,89.95
2022-08-26T02:17:35.456Z,89.95
2022-08-26T02:18:35.447Z,89.95
2022-08-26T02:19:35.437Z,90.06
2022-08-26T02:20:35.424Z,90.26
2022-08-26T02:21:35.428Z,90.16
2022-08-26T02:22:35.411Z,90.26
2022-08-26T02:23:35.399Z,90.16
2022-08-26T02:24:35.461Z,90.26
2022-08-26T02:25:35.395Z,90.46
2022-08-26T02:26:35.371Z,90.26
2022-08-26T02:27:35.350Z,90.26
2022-08-26T02:28:35.500Z,90.16
2022-08-26T02:29:35.437Z,90.26
2022-08-26T02:30:35.357Z,90.46
2022-08-26T02:31:35.374Z,90.56
2022-08-26T02:32:35.311Z,90.46
2022-08-26T02:33:35.290Z,90.77
2022-08-26T02:34:35.300Z,90.66
2022-08-26T02:35:35.273Z,90.56
2022-08-26T02:36:35.262Z,90.16
2022-08-26T02:37:35.265Z,90.46
2022-08-26T02:38:35.234Z,90.66
2022-08-26T02:39:35.226Z,90.66
2022-08-26T02:40:35.255Z,90.97
2022-08-26T02:41:35.306Z,90.86
2022-08-26T02:42:36.196Z,91.01
2022-08-26T02:43:35.185Z,91.31
2022-08-26T02:44:35.177Z,91.41
2022-08-26T02:45:35.165Z,91.41
2022-08-26T02:46:35.202Z,91.21
2022-08-26T02:47:35.436Z,91.21
2022-08-26T02:48:35.138Z,91.01
2022-08-26T02:49:35.127Z,91.21
2022-08-26T02:50:35.149Z,91.51
2022-08-26T02:51:35.129Z,91.41
2022-08-26T02:52:35.117Z,91.31
2022-08-26T02:53:35.419Z,92.22
2022-08-26T02:54:35.072Z,92.22
2022-08-26T02:55:35.060Z,91.91
2022-08-26T02:56:35.079Z,91.46
2022-08-26T02:57:35.039Z,91.46
2022-08-26T02:58:35.040Z,91.35
2022-08-26T02:59:35.021Z,91.76
2022-08-26T03:00:35.034Z,91.86
2022-08-26T03:01:35.019Z,91.86
2022-08-26T03:02:34.991Z,91.86
2022-08-26T03:03:34.972Z,92.57
2022-08-26T03:04:34.971Z,92.66
2022-08-26T03:05:35.051Z,92.66
2022-08-26T03:06:34.952Z,92.81
2022-08-26T03:07:34.924Z,92.71
2022-08-26T03:08:34.923Z,92.71
2022-08-26T03:09:34.904Z,92.50
2022-08-26T03:10:34.916Z,92.21
2022-08-26T03:11:34.905Z,92.21
2022-08-26T03:12:34.878Z,92.21
2022-08-26T03:13:34.876Z,92.50
2022-08-26T03:14:34.865Z,92.50
2022-08-26T03:15:35.035Z,92.30
2022-08-26T03:16:34.905Z,92.21
2022-08-26T03:17:34.827Z,92.30
2022-08-26T03:18:34.958Z,92.50
2022-08-26T03:19:34.805Z,92.41
2022-08-26T03:20:34.789Z,92.10
2022-08-26T03:21:34.788Z,92.21
2022-08-26T03:22:34.779Z,92.61
2022-08-26T03:23:34.769Z,93.12
2022-08-26T03:24:34.747Z,93.01
2022-08-26T03:25:34.748Z,92.91
2022-08-26T03:26:34.733Z,93.41
2022-08-26T03:27:34.748Z,93.12
2022-08-26T03:28:34.712Z,92.71
2022-08-26T03:29:34.702Z,92.71
2022-08-26T03:30:34.742Z,92.91
2022-08-26T03:31:34.760Z,93.01
2022-08-26T03:32:34.673Z,92.81
2022-08-26T03:33:34.671Z,92.81
2022-08-26T03:34:34.661Z,93.01
2022-08-26T03:35:34.631Z,92.81
2022-08-26T03:36:35.077Z,92.61
2022-08-26T03:37:34.611Z,92.81
2022-08-26T03:38:34.612Z,93.41
2022-08-26T03:39:34.613Z,93.41
2022-08-26T03:40:34.638Z,93.41
2022-08-26T03:41:34.576Z,93.62
2022-08-26T03:42:34.875Z,93.72
2022-08-26T03:43:34.566Z,93.72
2022-08-26T03:44:34.544Z,93.62
2022-08-26T03:45:34.537Z,93.82
2022-08-26T03:46:35.415Z,93.72
2022-08-26T03:47:34.504Z,93.92
2022-08-26T03:48:34.506Z,93.72
2022-08-26T03:49:34.489Z,93.62
2022-08-26T03:50:35.710Z,93.52
2022-08-26T03:51:34.469Z,93.62
2022-08-26T03:52:34.468Z,93.62
2022-08-26T03:53:34.500Z,93.62
2022-08-26T03:54:34.438Z,93.92
2022-08-26T03:55:34.445Z,94.23
2022-08-26T03:56:34.410Z,94.83
2022-08-26T03:57:34.411Z,94.23
2022-08-26T03:58:34.401Z,94.32
2022-08-26T03:59:34.381Z,94.73
2022-08-26T04:00:34.472Z,94.63
2022-08-26T04:01:34.394Z,94.53
2022-08-26T04:02:34.402Z,94.87
2022-08-26T04:03:34.343Z,94.47
2022-08-26T04:04:34.342Z,94.37
2022-08-26T04:05:34.344Z,94.32
2022-08-26T04:06:34.314Z,94.02
2022-08-26T04:07:34.305Z,93.72
2022-08-26T04:08:34.302Z,94.73
2022-08-26T04:09:35.175Z,94.73
2022-08-26T04:10:34.282Z,94.73
2022-08-26T04:11:35.012Z,94.63
2022-08-26T04:12:34.266Z,95.03
2022-08-26T04:13:34.229Z,94.73
2022-08-26T04:14:34.226Z,94.63
2022-08-26T04:15:34.207Z,94.43
2022-08-26T04:16:34.278Z,94.32
2022-08-26T04:17:34.188Z,94.32
2022-08-26T04:18:37.013Z,94.32
2022-08-26T04:19:34.171Z,94.23
2022-08-26T04:20:34.165Z,94.23
2022-08-26T04:21:34.278Z,93.82
2022-08-26T04:22:34.156Z,93.92
2022-08-26T04:23:34.119Z,94.02
2022-08-26T04:24:35.123Z,93.82
2022-08-26T04:25:34.099Z,93.72
2022-08-26T04:26:34.340Z,93.72
2022-08-26T04:27:34.081Z,93.41
2022-08-26T04:28:34.112Z,93.21
2022-08-26T04:29:34.057Z,93.12
2022-08-26T04:30:34.060Z,93.01
2022-08-26T04:31:34.317Z,93.01
2022-08-26T04:32:34.033Z,93.12
2022-08-26T04:33:34.020Z,92.81
2022-08-26T04:34:35.022Z,92.50
2022-08-26T04:35:34.003Z,92.57
2022-08-26T04:36:34.005Z,92.71
2022-08-26T04:37:33.984Z,92.86
2022-08-26T04:38:33.975Z,92.86
2022-08-26T04:39:33.955Z,93.07
2022-08-26T04:40:34.020Z,93.12
2022-08-26T04:41:33.953Z,93.21
2022-08-26T04:42:34.247Z,93.21
2022-08-26T04:43:33.915Z,93.21
2022-08-26T04:44:33.905Z,92.81
2022-08-26T04:45:33.915Z,92.81
2022-08-26T04:46:34.000Z,92.91
2022-08-26T04:47:33.879Z,93.01
2022-08-26T04:48:33.868Z,92.91
2022-08-26T04:49:35.214Z,93.01
2022-08-26T04:50:33.858Z,92.81
2022-08-26T04:51:33.829Z,92.81
2022-08-26T04:52:34.620Z,92.91
2022-08-26T04:53:33.812Z,93.01
2022-08-26T04:54:33.802Z,93.01
2022-08-26T04:55:38.232Z,93.01
2022-08-26T04:56:34.781Z,93.26
2022-08-26T04:57:33.768Z,93.76
2022-08-26T04:58:33.872Z,93.56
2022-08-26T04:59:38.454Z,93.56
2022-08-26T05:00:34.744Z,93.46
2022-08-26T05:01:34.573Z,93.36
2022-08-26T05:02:34.730Z,93.36
2022-08-26T05:03:33.955Z,93.36
2022-08-26T05:04:33.725Z,93.46
2022-08-26T05:05:33.794Z,93.36
2022-08-26T05:06:36.987Z,93.56
2022-08-26T05:07:34.475Z,93.66
2022-08-26T05:08:34.475Z,93.56
2022-08-26T05:09:34.455Z,93.76
2022-08-26T05:10:33.646Z,93.66
2022-08-26T05:11:33.623Z,93.46
2022-08-26T05:12:33.619Z,93.56
2022-08-26T05:13:33.608Z,94.07
2022-08-26T05:14:33.597Z,93.66
2022-08-26T05:15:33.618Z,93.66
2022-08-26T05:16:33.575Z,93.76
2022-08-26T05:17:33.972Z,93.87
2022-08-26T05:18:33.549Z,93.76
2022-08-26T05:19:33.563Z,93.87
2022-08-26T05:20:33.529Z,94.47
2022-08-26T05:21:33.527Z,94.53
2022-08-26T05:22:33.700Z,94.23
2022-08-26T05:23:33.498Z,94.23
2022-08-26T05:24:33.501Z,94.32
2022-08-26T05:25:34.291Z,94.43
2022-08-26T05:26:33.542Z,94.53
2022-08-26T05:27:33.552Z,94.73
2022-08-26T05:28:33.483Z,94.63
2022-08-26T05:29:33.432Z,94.53
2022-08-26T05:30:33.572Z,94.43
2022-08-26T05:31:33.468Z,94.73
2022-08-26T05:32:33.407Z,94.63
2022-08-26T05:33:33.402Z,94.53
2022-08-26T05:34:33.393Z,94.63
2022-08-26T05:35:33.395Z,94.43
2022-08-26T05:36:33.367Z,94.43
2022-08-26T05:37:33.355Z,94.79
2022-08-26T05:38:33.347Z,94.63
2022-08-26T05:39:33.334Z,94.59
2022-08-26T05:40:33.389Z,94.79
2022-08-26T05:41:34.477Z,95.09
2022-08-26T05:42:33.297Z,94.99
2022-08-26T05:43:33.287Z,94.89
2022-08-26T05:44:53.565Z,95.09
2022-08-26T05:45:34.275Z,94.99
2022-08-26T05:46:33.288Z,94.89
2022-08-26T05:47:33.246Z,94.99
2022-08-26T05:48:33.239Z,95.04
2022-08-26T05:49:33.230Z,94.94
2022-08-26T05:50:33.227Z,94.94
2022-08-26T05:51:33.198Z,94.84
2022-08-26T05:52:33.200Z,95.04
2022-08-26T05:53:33.189Z,95.35
2022-08-26T05:54:33.171Z,95.65
2022-08-26T05:55:33.167Z,95.70
2022-08-26T05:56:33.159Z,95.40
2022-08-26T05:57:37.437Z,94.39
2022-08-26T05:58:34.133Z,94.39
2022-08-26T05:59:33.115Z,95.30
2022-08-26T06:00:33.103Z,96.06
2022-08-26T06:01:35.739Z,95.56
2022-08-26T06:02:33.155Z,94.25
2022-08-26T06:03:33.075Z,93.95
2022-08-26T06:04:33.064Z,94.05
2022-08-26T06:05:37.849Z,94.10
2022-08-26T06:06:34.337Z,94.20
2022-08-26T06:07:33.026Z,94.31
2022-08-26T06:08:33.036Z,93.90
2022-08-26T06:09:33.016Z,93.40
2022-08-26T06:10:33.247Z,93.40
2022-08-26T06:11:32.987Z,95.41
2022-08-26T06:12:32.988Z,95.47
2022-08-26T06:13:32.967Z,94.67
2022-08-26T06:14:32.968Z,94.36
2022-08-26T06:15:32.998Z,94.46
2022-08-26T06:16:32.947Z,94.06
2022-08-26T06:17:32.934Z,93.46
2022-08-26T06:18:32.929Z,93.35
2022-08-26T06:19:34.510Z,93.41
2022-08-26T06:20:32.900Z,93.71
2022-08-26T06:21:32.904Z,93.31
2022-08-26T06:22:32.911Z,93.31
2022-08-26T06:23:32.863Z,93.21
2022-08-26T06:24:32.963Z,93.11
2022-08-26T06:25:32.842Z,92.16
2022-08-26T06:26:32.842Z,91.66
2022-08-26T06:27:32.980Z,91.46
2022-08-26T06:28:32.812Z,92.52
2022-08-26T06:29:32.802Z,90.91
2022-08-26T06:30:32.910Z,90.91
2022-08-26T06:31:32.842Z,90.97
2022-08-26T06:32:32.774Z,90.97
2022-08-26T06:33:32.761Z,91.13
2022-08-26T06:34:32.763Z,91.02
2022-08-26T06:35:32.755Z,88.77
2022-08-26T06:36:32.739Z,89.17
2022-08-26T06:37:32.725Z,87.73
2022-08-26T06:38:32.734Z,86.52
2022-08-26T06:39:32.696Z,87.28
2022-08-26T06:40:32.721Z,88.29
2022-08-26T06:41:32.680Z,85.83
2022-08-26T06:42:32.679Z,84.63
2022-08-26T06:43:32.648Z,84.23
2022-08-26T06:44:32.648Z,81.29
2022-08-26T06:45:33.434Z,82.39
2022-08-26T06:46:32.914Z,82.99
2022-08-26T06:47:32.620Z,81.88
2022-08-26T06:48:32.629Z,82.18
2022-08-26T06:49:32.588Z,83.39
2022-08-26T06:50:32.589Z,83.85
2022-08-26T06:51:32.571Z,83.05
2022-08-26T06:52:32.711Z,82.65
2022-08-26T06:53:32.551Z,82.65
2022-08-26T06:54:33.355Z,83.05
2022-08-26T06:55:32.522Z,81.65
2022-08-26T06:56:32.523Z,83.15
2022-08-26T06:57:32.520Z,85.55
2022-08-26T06:58:33.303Z,81.55
2022-08-26T06:59:32.491Z,80.85
2022-08-26T07:00:32.471Z,82.45
2022-08-26T07:01:32.550Z,80.15
2022-08-26T07:02:32.508Z,79.14
2022-08-26T07:03:32.456Z,81.24
2022-08-26T07:04:33.432Z,80.85
2022-08-26T07:05:32.417Z,80.74
2022-08-26T07:06:32.438Z,81.24
2022-08-26T07:07:32.403Z,80.24
2022-08-26T07:08:32.378Z,81.35
2022-08-26T07:09:32.400Z,80.71
2022-08-26T07:10:32.469Z,80.41
2022-08-26T07:11:32.358Z,81.01
2022-08-26T07:12:32.349Z,81.27
2022-08-26T07:13:32.337Z,79.47
2022-08-26T07:14:32.338Z,79.27
2022-08-26T07:15:32.646Z,78.77
2022-08-26T07:16:32.307Z,78.77
2022-08-26T07:17:32.291Z,78.53
2022-08-26T07:18:32.272Z,79.53
2022-08-26T07:19:32.279Z,77.63
2022-08-26T07:20:32.253Z,77.33
2022-08-26T07:21:32.250Z,78.13
2022-08-26T07:22:32.252Z,76.79
2022-08-26T07:23:32.242Z,75.49
2022-08-26T07:24:32.383Z,76.89
2022-08-26T07:25:32.204Z,76.59
2022-08-26T07:26:32.192Z,77.29
2022-08-26T07:27:32.195Z,78.05
2022-08-26T07:28:32.175Z,78.29
2022-08-26T07:29:32.167Z,77.99
2022-08-26T07:30:32.166Z,79.29
2022-08-26T07:31:39.150Z,76.59
2022-08-26T07:32:33.126Z,76.29
2022-08-26T07:33:32.136Z,76.06
2022-08-26T07:34:32.106Z,78.05
2022-08-26T07:35:32.107Z,75.26
2022-08-26T07:36:32.098Z,76.12
2022-08-26T07:37:35.493Z,75.62
2022-08-26T07:38:33.953Z,75.92
2022-08-26T07:39:32.059Z,76.28
2022-08-26T07:40:32.158Z,76.88
2022-08-26T07:41:32.041Z,76.04
2022-08-26T07:42:32.022Z,75.45
2022-08-26T07:43:32.020Z,74.51
2022-08-26T07:44:32.012Z,73.42
2022-08-26T07:45:31.999Z,71.98
2022-08-26T07:46:32.171Z,73.35
2022-08-26T07:47:31.997Z,72.65
2022-08-26T07:48:31.960Z,72.11
2022-08-26T07:49:32.025Z,71.42
2022-08-26T07:50:34.170Z,71.42
2022-08-26T07:51:32.942Z,72.61
2022-08-26T07:52:31.935Z,72.81
2022-08-26T07:53:31.924Z,70.86
2022-08-26T07:54:31.905Z,71.55
2022-08-26T07:55:31.894Z,71.35
2022-08-26T07:56:31.877Z,71.55
2022-08-26T07:57:31.875Z,72.58
2022-08-26T07:58:31.858Z,73.58
2022-08-26T07:59:31.865Z,71.69
2022-08-26T08:00:31.848Z,71.78
2022-08-26T08:01:31.828Z,73.48
2022-08-26T08:02:31.820Z,73.08
2022-08-26T08:03:31.828Z,73.38
2022-08-26T08:04:31.800Z,72.55
2022-08-26T08:05:33.777Z,73.81
2022-08-26T08:06:31.779Z,71.02
2022-08-26T08:07:44.277Z,72.78
2022-08-26T08:08:32.791Z,70.98
2022-08-26T08:09:31.762Z,70.75
2022-08-26T08:10:31.731Z,69.76
2022-08-26T08:11:31.730Z,71.01
2022-08-26T08:12:31.737Z,71.12
2022-08-26T08:13:31.712Z,68.83
2022-08-26T08:14:31.691Z,68.53
2022-08-26T08:15:31.693Z,69.29
2022-08-26T08:16:32.212Z,69.20
2022-08-26T08:17:31.683Z,68.90
2022-08-26T08:18:32.475Z,69.59
2022-08-26T08:19:36.575Z,69.06
2022-08-26T08:20:32.660Z,69.56
2022-08-26T08:21:31.626Z,69.16
2022-08-26T08:22:31.607Z,68.66
2022-08-26T08:23:31.611Z,68.96
2022-08-26T08:24:31.588Z,69.20
2022-08-26T08:25:31.585Z,68.90
2022-08-26T08:26:31.642Z,70.29
2022-08-26T08:27:31.559Z,69.69
2022-08-26T08:28:31.539Z,68.80
2022-08-26T08:29:31.587Z,68.70
2022-08-26T08:30:31.595Z,69.62
2022-08-26T08:32:33.322Z,70.03
2022-08-26T08:33:31.521Z,70.82
2022-08-26T08:34:31.550Z,71.78
2022-08-26T08:35:32.271Z,70.68
2022-08-26T08:36:32.234Z,70.89
2022-08-26T08:37:31.451Z,69.36
2022-08-26T08:38:31.447Z,69.85
2022-08-26T08:39:31.591Z,69.85
2022-08-26T08:40:31.485Z,69.26
2022-08-26T08:41:31.416Z,70.25
2022-08-26T08:42:31.397Z,69.85
2022-08-26T08:43:31.387Z,67.77
2022-08-26T08:44:32.385Z,68.86
2022-08-26T08:45:35.898Z,68.37
2022-08-26T08:46:32.426Z,69.46
2022-08-26T08:47:31.354Z,69.06
2022-08-26T08:48:31.334Z,70.36
2022-08-26T08:49:31.328Z,69.13
2022-08-26T08:50:31.318Z,69.23
2022-08-26T08:51:31.948Z,70.12
2022-08-26T08:52:31.291Z,70.68
2022-08-26T08:53:31.289Z,67.31
2022-08-26T08:54:31.268Z,66.91
2022-08-26T08:55:31.269Z,67.31
2022-08-26T08:56:31.250Z,68.17
2022-08-26T08:57:31.251Z,68.37
2022-08-26T08:58:31.228Z,67.27
2022-08-26T08:59:31.225Z,67.08
2022-08-26T09:00:31.202Z,66.98
2022-08-26T09:01:31.660Z,67.05
2022-08-26T09:02:31.242Z,66.75
2022-08-26T09:03:31.194Z,66.55
2022-08-26T09:04:31.172Z,67.14
2022-08-26T09:05:31.165Z,67.05
2022-08-26T09:06:31.335Z,65.66
2022-08-26T09:07:36.320Z,66.25
2022-08-26T09:08:32.146Z,66.05
2022-08-26T09:09:31.136Z,65.95
2022-08-26T09:10:31.106Z,65.56
2022-08-26T09:11:31.126Z,66.15
2022-08-26T09:12:31.089Z,66.82
2022-08-26T09:13:31.819Z,66.12
2022-08-26T09:14:31.079Z,65.62
2022-08-26T09:15:31.059Z,65.33
2022-08-26T09:16:31.899Z,65.62
2022-08-26T09:17:31.499Z,66.42
2022-08-26T09:18:31.029Z,65.00
2022-08-26T09:19:31.125Z,65.79
2022-08-26T09:20:31.013Z,64.37
2022-08-26T09:21:31.820Z,63.68
2022-08-26T09:22:30.985Z,63.55
2022-08-26T09:23:30.993Z,63.95
2022-08-26T09:24:30.963Z,63.92
2022-08-26T09:25:31.765Z,63.92
2022-08-26T09:26:31.094Z,62.53
2022-08-26T09:27:30.942Z,62.60
2022-08-26T09:28:30.924Z,62.93
2022-08-26T09:29:30.924Z,63.22
2022-08-26T09:30:31.776Z,63.42
2022-08-26T09:31:31.052Z,62.23
2022-08-26T09:32:31.045Z,61.99
2022-08-26T09:33:30.876Z,63.31
2022-08-26T09:34:31.656Z,64.31
2022-08-26T09:35:31.675Z,65.89
2022-08-26T09:36:30.896Z,66.78
2022-08-26T09:37:30.828Z,65.59
2022-08-26T09:38:31.638Z,65.59
2022-08-26T09:39:31.486Z,66.06
2022-08-26T09:40:30.818Z,64.47
2022-08-26T09:41:30.799Z,65.73
2022-08-26T09:42:30.779Z,63.15
2022-08-26T09:43:30.772Z,63.65
2022-08-26T09:44:30.768Z,64.64
2022-08-26T09:45:30.751Z,63.52
2022-08-26T09:46:30.855Z,62.04
2022-08-26T09:47:31.675Z,63.82
2022-08-26T09:48:30.943Z,63.06
2022-08-26T09:49:35.124Z,61.44
2022-08-26T09:50:31.705Z,62.53
2022-08-26T09:51:30.696Z,62.53
2022-08-26T09:52:30.703Z,63.09
2022-08-26T09:53:30.699Z,63.59
2022-08-26T09:54:30.655Z,60.92
2022-08-26T09:55:30.654Z,59.70
2022-08-26T09:56:30.637Z,60.10
2022-08-26T09:57:30.636Z,61.16
2022-08-26T09:58:30.617Z,59.67
2022-08-26T09:59:30.615Z,61.65
2022-08-26T10:00:30.602Z,60.93
2022-08-26T10:01:30.696Z,60.63
2022-08-26T10:02:31.386Z,61.00
2022-08-26T10:03:31.485Z,60.41
2022-08-26T10:04:30.588Z,57.81
2022-08-26T10:05:30.559Z,58.70
2022-08-26T10:06:32.490Z,59.78
2022-08-26T10:07:30.532Z,60.35
2022-08-26T10:08:30.511Z,57.51
2022-08-26T10:09:30.509Z,58.63
2022-08-26T10:10:30.502Z,57.45
2022-08-26T10:11:30.482Z,58.04
2022-08-26T10:12:30.476Z,59.45
2022-08-26T10:13:30.465Z,58.78
2022-08-26T10:14:30.454Z,58.49
2022-08-26T10:15:30.445Z,58.78
2022-08-26T10:16:30.467Z,58.00
2022-08-26T10:17:30.794Z,57.40
2022-08-26T10:18:34.062Z,59.05
2022-08-26T10:19:55.839Z,59.94
2022-08-26T10:20:31.386Z,59.15
2022-08-26T10:21:30.387Z,57.24
2022-08-26T10:22:30.377Z,56.06
2022-08-26T10:23:30.417Z,56.73
2022-08-26T10:24:30.677Z,57.91
2022-08-26T10:25:30.365Z,58.60
2022-08-26T10:26:30.328Z,58.28
2022-08-26T10:27:30.330Z,58.54
2022-08-26T10:28:30.310Z,56.48
2022-08-26T10:29:30.382Z,56.35
2022-08-26T10:30:30.291Z,54.38
2022-08-26T10:31:30.395Z,54.16
2022-08-26T10:32:31.372Z,53.69
2022-08-26T10:33:30.262Z,55.56
2022-08-26T10:34:30.252Z,55.98
2022-08-26T10:35:30.241Z,56.57
2022-08-26T10:36:30.233Z,56.21
2022-08-26T10:37:30.215Z,56.60
2022-08-26T10:38:31.015Z,54.82
2022-08-26T10:39:30.204Z,54.72
2022-08-26T10:40:30.245Z,56.70
2022-08-26T10:41:30.186Z,54.95
2022-08-26T10:42:30.970Z,53.10
2022-08-26T10:43:30.155Z,54.78
2022-08-26T10:44:30.137Z,54.97
2022-08-26T10:45:30.252Z,56.85
2022-08-26T10:46:30.131Z,56.65
2022-08-26T10:47:30.118Z,55.07
2022-08-26T10:48:35.555Z,55.27
2022-08-26T10:49:31.098Z,55.87
2022-08-26T10:50:30.080Z,55.66
2022-08-26T10:51:30.089Z,56.43
2022-08-26T10:52:30.058Z,56.53
2022-08-26T10:53:32.720Z,54.72
2022-08-26T10:54:30.044Z,53.77
2022-08-26T10:55:30.033Z,56.33
2022-08-26T10:56:31.073Z,53.05
2022-08-26T10:57:30.023Z,53.94
2022-08-26T10:58:30.181Z,55.41
2022-08-26T10:59:29.992Z,53.15
2022-08-26T11:00:29.988Z,54.63
2022-08-26T11:01:30.021Z,51.97
2022-08-26T11:02:29.963Z,50.61
2022-08-26T11:03:29.956Z,53.47
2022-08-26T11:04:29.966Z,51.89
2022-08-26T11:05:30.927Z,53.05
2022-08-26T11:06:29.917Z,52.26
2022-08-26T11:07:29.917Z,52.75
2022-08-26T11:08:29.890Z,50.76
2022-08-26T11:09:29.931Z,51.37
2022-08-26T11:10:29.880Z,50.68
2022-08-26T11:11:29.870Z,49.62
2022-08-26T11:12:29.971Z,51.10
2022-08-26T11:13:29.854Z,50.81
2022-08-26T11:14:31.435Z,53.15
2022-08-26T11:15:30.823Z,53.94
2022-08-26T11:16:29.948Z,53.42
2022-08-26T11:17:29.809Z,51.42
2022-08-26T11:18:29.863Z,52.87
2022-08-26T11:19:40.098Z,51.99
2022-08-26T11:20:30.774Z,49.62
2022-08-26T11:21:29.763Z,52.58
2022-08-26T11:22:29.764Z,50.42
2022-08-26T11:23:29.746Z,53.47
2022-08-26T11:24:29.746Z,53.54
2022-08-26T11:25:31.060Z,51.97
2022-08-26T11:26:36.138Z,51.47
2022-08-26T11:27:30.871Z,51.28
2022-08-26T11:28:29.701Z,50.88
2022-08-26T11:29:29.797Z,49.50
2022-08-26T11:30:29.697Z,47.92
2022-08-26T11:31:29.702Z,51.57
2022-08-26T11:32:29.658Z,50.59
2022-08-26T11:33:29.641Z,49.50
2022-08-26T11:34:29.641Z,49.40
2022-08-26T11:35:29.644Z,50.90
2022-08-26T11:36:29.622Z,51.10
2022-08-26T11:37:29.622Z,52.09
2022-08-26T11:38:29.604Z,51.69
2022-08-26T11:39:29.593Z,51.40
2022-08-26T11:40:29.642Z,50.51
2022-08-26T11:41:29.595Z,51.20
2022-08-26T11:42:29.561Z,51.30
2022-08-26T11:43:29.862Z,50.51
2022-08-26T11:44:29.548Z,51.50
2022-08-26T11:45:29.580Z,50.51
2022-08-26T11:46:29.523Z,52.36
2022-08-26T11:47:29.563Z,50.09
2022-08-26T11:48:29.506Z,49.11
2022-08-26T11:49:29.492Z,49.13
2022-08-26T11:50:29.487Z,50.14
2022-08-26T11:51:30.266Z,49.16
2022-08-26T11:52:29.462Z,51.62
2022-08-26T11:53:29.912Z,50.85
2022-08-26T11:54:35.375Z,50.95
2022-08-26T11:55:31.238Z,51.03
2022-08-26T11:56:31.667Z,51.23
2022-08-26T11:57:29.414Z,49.87
2022-08-26T11:58:29.411Z,51.64
2022-08-26T11:59:30.245Z,51.92
2022-08-26T12:00:31.426Z,53.00
2022-08-26T12:01:29.370Z,54.35
2022-08-26T12:02:29.371Z,51.40
2022-08-26T12:03:29.467Z,50.73
2022-08-26T12:04:29.406Z,52.40
2022-08-26T12:05:30.963Z,51.20
2022-08-26T12:06:30.135Z,50.02
2022-08-26T12:07:29.345Z,51.97
2022-08-26T12:08:29.325Z,51.35
2022-08-26T12:09:29.287Z,50.07
2022-08-26T12:10:29.526Z,48.71
2022-08-26T12:11:29.316Z,47.53
2022-08-26T12:12:34.077Z,48.94
2022-08-26T12:13:30.255Z,49.33
2022-08-26T12:14:29.240Z,50.29
2022-08-26T12:15:29.636Z,51.47
2022-08-26T12:16:29.380Z,50.46
2022-08-26T12:17:29.199Z,49.38
2022-08-26T12:18:30.172Z,46.03
2022-08-26T12:19:29.190Z,48.10
2022-08-26T12:20:29.184Z,51.54
2022-08-26T12:21:29.174Z,49.18
2022-08-26T12:22:30.162Z,50.04
2022-08-26T12:23:29.150Z,49.65
2022-08-26T12:24:29.173Z,47.88
2022-08-26T12:25:30.665Z,49.65
2022-08-26T12:26:30.127Z,47.00
2022-08-26T12:27:29.112Z,47.80
2022-08-26T12:28:29.103Z,48.59
2022-08-26T12:29:29.897Z,49.97
2022-08-26T12:30:29.101Z,47.19
2022-08-26T12:31:29.143Z,49.16
2022-08-26T12:32:29.075Z,48.84
2022-08-26T12:33:29.367Z,47.47
2022-08-26T12:34:29.046Z,45.70
2022-08-26T12:35:29.499Z,46.01
2022-08-26T12:36:29.028Z,47.19
2022-08-26T12:37:29.010Z,46.80
2022-08-26T12:38:29.013Z,46.60
2022-08-26T12:39:28.991Z,47.39
2022-08-26T12:40:29.855Z,47.31
2022-08-26T12:41:28.968Z,45.84
2022-08-26T12:42:28.978Z,48.39
2022-08-26T12:43:28.961Z,46.03
2022-08-26T12:44:28.942Z,47.71
2022-08-26T12:45:28.961Z,49.77
2022-08-26T12:46:28.933Z,46.43
2022-08-26T12:47:42.388Z,47.78
2022-08-26T12:48:29.903Z,45.52
2022-08-26T12:49:28.884Z,45.99
2022-08-26T12:50:28.883Z,45.20
2022-08-26T12:51:28.865Z,45.20
2022-08-26T12:52:29.655Z,45.52
2022-08-26T12:53:29.033Z,47.17